sensor_id;sensor_type;location;lat;lon;timestamp;P1;durP1;ratioP1;P2;durP2;ratioP2
49051;SDS011;34866;48.670;18.260;2022-10-14T00:02:26;34.83;;;18.00;;
49051;SDS011;34866;48.670;18.260;2022-10-14T00:04:53;32.78;;;17.25;;
49051;SDS011;34866;48.670;18.260;2022-10-14T00:07:19;39.55;;;18.10;;
49051;SDS011;34866;48.670;18.260;2022-10-14T00:09:45;34.22;;;16.70;;
49051;SDS011;34866;48.670;18.260;2022-10-14T00:12:13;35.47;;;18.60;;
49051;SDS011;34866;48.670;18.260;2022-10-14T00:14:48;38.58;;;18.30;;
49051;SDS011;34866;48.670;18.260;2022-10-14T00:17:17;40.78;;;17.75;;
49051;SDS011;34866;48.670;18.260;2022-10-14T00:19:43;39.88;;;18.80;;
49051;SDS011;34866;48.670;18.260;2022-10-14T00:22:10;34.63;;;17.38;;
49051;SDS011;34866;48.670;18.260;2022-10-14T00:24:37;44.80;;;19.23;;
49051;SDS011;34866;48.670;18.260;2022-10-14T00:27:03;50.13;;;19.25;;
49051;SDS011;34866;48.670;18.260;2022-10-14T00:29:32;40.92;;;18.90;;
49051;SDS011;34866;48.670;18.260;2022-10-14T00:31:57;45.13;;;18.80;;
49051;SDS011;34866;48.670;18.260;2022-10-14T00:34:29;49.05;;;19.02;;
49051;SDS011;34866;48.670;18.260;2022-10-14T00:37:21;46.80;;;18.08;;
49051;SDS011;34866;48.670;18.260;2022-10-14T00:39:47;37.92;;;17.40;;
49051;SDS011;34866;48.670;18.260;2022-10-14T00:42:13;42.17;;;18.02;;
49051;SDS011;34866;48.670;18.260;2022-10-14T00:47:11;36.83;;;17.50;;
49051;SDS011;34866;48.670;18.260;2022-10-14T00:49:37;38.20;;;17.50;;
49051;SDS011;34866;48.670;18.260;2022-10-14T00:52:14;35.50;;;17.05;;
49051;SDS011;34866;48.670;18.260;2022-10-14T00:54:47;39.78;;;17.05;;
49051;SDS011;34866;48.670;18.260;2022-10-14T00:57:16;33.50;;;17.40;;
49051;SDS011;34866;48.670;18.260;2022-10-14T00:59:44;35.15;;;16.42;;
49051;SDS011;34866;48.670;18.260;2022-10-14T01:02:13;30.98;;;15.88;;
49051;SDS011;34866;48.670;18.260;2022-10-14T01:04:40;29.38;;;16.20;;
49051;SDS011;34866;48.670;18.260;2022-10-14T01:16:29;39.08;;;16.13;;
49051;SDS011;34866;48.670;18.260;2022-10-14T01:31:17;32.65;;;16.20;;
49051;SDS011;34866;48.670;18.260;2022-10-14T01:33:47;32.00;;;14.60;;
49051;SDS011;34866;48.670;18.260;2022-10-14T01:36:29;34.33;;;15.88;;
49051;SDS011;34866;48.670;18.260;2022-10-14T01:39:19;37.33;;;15.07;;
49051;SDS011;34866;48.670;18.260;2022-10-14T01:41:54;33.47;;;16.33;;
49051;SDS011;34866;48.670;18.260;2022-10-14T01:44:37;28.75;;;15.88;;
49051;SDS011;34866;48.670;18.260;2022-10-14T01:47:12;31.20;;;15.40;;
49051;SDS011;34866;48.670;18.260;2022-10-14T01:49:44;33.60;;;15.55;;
49051;SDS011;34866;48.670;18.260;2022-10-14T01:52:25;33.17;;;15.52;;
49051;SDS011;34866;48.670;18.260;2022-10-14T01:55:02;31.65;;;15.35;;
49051;SDS011;34866;48.670;18.260;2022-10-14T01:57:32;31.25;;;14.80;;
49051;SDS011;34866;48.670;18.260;2022-10-14T02:00:03;33.45;;;15.30;;
49051;SDS011;34866;48.670;18.260;2022-10-14T02:02:36;39.17;;;15.88;;
49051;SDS011;34866;48.670;18.260;2022-10-14T02:05:07;32.63;;;15.15;;
49051;SDS011;34866;48.670;18.260;2022-10-14T02:07:51;31.27;;;15.18;;
49051;SDS011;34866;48.670;18.260;2022-10-14T02:10:57;28.67;;;15.90;;
49051;SDS011;34866;48.670;18.260;2022-10-14T02:19:38;26.20;;;13.55;;
49051;SDS011;34866;48.670;18.260;2022-10-14T02:27:52;27.67;;;14.40;;
49051;SDS011;34866;48.670;18.260;2022-10-14T02:30:18;31.35;;;15.30;;
49051;SDS011;34866;48.670;18.260;2022-10-14T02:32:45;32.67;;;14.95;;
49051;SDS011;34866;48.670;18.260;2022-10-14T02:35:14;30.58;;;13.98;;
49051;SDS011;34866;48.670;18.260;2022-10-14T02:37:45;29.92;;;13.55;;
49051;SDS011;34866;48.670;18.260;2022-10-14T02:40:16;28.55;;;14.55;;
49051;SDS011;34866;48.670;18.260;2022-10-14T02:43:03;37.72;;;15.02;;
49051;SDS011;34866;48.670;18.260;2022-10-14T02:45:35;29.58;;;15.00;;
49051;SDS011;34866;48.670;18.260;2022-10-14T02:48:08;28.15;;;14.80;;
49051;SDS011;34866;48.670;18.260;2022-10-14T02:50:40;32.05;;;14.68;;
49051;SDS011;34866;48.670;18.260;2022-10-14T02:53:18;33.88;;;14.63;;
49051;SDS011;34866;48.670;18.260;2022-10-14T02:55:44;29.23;;;15.00;;
49051;SDS011;34866;48.670;18.260;2022-10-14T02:58:10;32.88;;;16.35;;
49051;SDS011;34866;48.670;18.260;2022-10-14T03:00:38;30.30;;;15.02;;
49051;SDS011;34866;48.670;18.260;2022-10-14T03:03:10;30.33;;;14.95;;
49051;SDS011;34866;48.670;18.260;2022-10-14T03:05:35;28.30;;;14.48;;
49051;SDS011;34866;48.670;18.260;2022-10-14T03:08:02;32.75;;;14.57;;
49051;SDS011;34866;48.670;18.260;2022-10-14T03:10:30;29.92;;;14.70;;
49051;SDS011;34866;48.670;18.260;2022-10-14T03:12:56;36.50;;;14.45;;
49051;SDS011;34866;48.670;18.260;2022-10-14T03:15:21;29.95;;;14.30;;
49051;SDS011;34866;48.670;18.260;2022-10-14T03:17:50;30.08;;;13.43;;
49051;SDS011;34866;48.670;18.260;2022-10-14T03:20:34;25.77;;;12.88;;
49051;SDS011;34866;48.670;18.260;2022-10-14T03:23:10;29.70;;;14.25;;
49051;SDS011;34866;48.670;18.260;2022-10-14T03:25:36;29.73;;;13.60;;
49051;SDS011;34866;48.670;18.260;2022-10-14T03:28:03;26.25;;;12.80;;
49051;SDS011;34866;48.670;18.260;2022-10-14T03:30:29;27.85;;;13.88;;
49051;SDS011;34866;48.670;18.260;2022-10-14T03:32:55;24.75;;;13.10;;
49051;SDS011;34866;48.670;18.260;2022-10-14T03:35:21;30.38;;;15.23;;
49051;SDS011;34866;48.670;18.260;2022-10-14T03:37:47;39.60;;;14.00;;
49051;SDS011;34866;48.670;18.260;2022-10-14T03:40:28;30.23;;;15.18;;
49051;SDS011;34866;48.670;18.260;2022-10-14T03:42:58;28.58;;;12.80;;
49051;SDS011;34866;48.670;18.260;2022-10-14T03:45:25;26.80;;;12.60;;
49051;SDS011;34866;48.670;18.260;2022-10-14T03:47:52;27.00;;;13.07;;
49051;SDS011;34866;48.670;18.260;2022-10-14T03:50:18;30.30;;;14.85;;
49051;SDS011;34866;48.670;18.260;2022-10-14T03:52:47;30.63;;;14.35;;
49051;SDS011;34866;48.670;18.260;2022-10-14T03:55:13;40.75;;;19.08;;
49051;SDS011;34866;48.670;18.260;2022-10-14T03:57:42;30.05;;;16.92;;
49051;SDS011;34866;48.670;18.260;2022-10-14T04:00:14;42.40;;;16.80;;
49051;SDS011;34866;48.670;18.260;2022-10-14T04:02:43;34.08;;;16.30;;
49051;SDS011;34866;48.670;18.260;2022-10-14T04:05:09;28.40;;;15.30;;
49051;SDS011;34866;48.670;18.260;2022-10-14T04:07:35;29.60;;;14.73;;
49051;SDS011;34866;48.670;18.260;2022-10-14T04:10:01;28.85;;;14.95;;
49051;SDS011;34866;48.670;18.260;2022-10-14T04:12:45;27.13;;;14.50;;
49051;SDS011;34866;48.670;18.260;2022-10-14T04:15:12;31.80;;;15.48;;
49051;SDS011;34866;48.670;18.260;2022-10-14T04:17:41;32.42;;;15.02;;
49051;SDS011;34866;48.670;18.260;2022-10-14T04:20:13;31.85;;;13.98;;
49051;SDS011;34866;48.670;18.260;2022-10-14T04:22:48;27.23;;;13.15;;
49051;SDS011;34866;48.670;18.260;2022-10-14T04:25:20;36.45;;;14.48;;
49051;SDS011;34866;48.670;18.260;2022-10-14T04:27:59;35.53;;;14.70;;
49051;SDS011;34866;48.670;18.260;2022-10-14T04:30:26;27.63;;;13.10;;
49051;SDS011;34866;48.670;18.260;2022-10-14T04:32:51;32.03;;;14.80;;
49051;SDS011;34866;48.670;18.260;2022-10-14T04:35:17;28.65;;;13.95;;
49051;SDS011;34866;48.670;18.260;2022-10-14T04:37:49;31.25;;;13.77;;
49051;SDS011;34866;48.670;18.260;2022-10-14T04:40:15;30.30;;;14.27;;
49051;SDS011;34866;48.670;18.260;2022-10-14T04:42:42;29.58;;;13.80;;
49051;SDS011;34866;48.670;18.260;2022-10-14T04:45:10;34.53;;;13.73;;
49051;SDS011;34866;48.670;18.260;2022-10-14T04:47:39;27.13;;;13.70;;
49051;SDS011;34866;48.670;18.260;2022-10-14T04:50:10;24.77;;;12.88;;
49051;SDS011;34866;48.670;18.260;2022-10-14T04:52:39;26.05;;;12.40;;
49051;SDS011;34866;48.670;18.260;2022-10-14T04:55:07;25.20;;;13.30;;
49051;SDS011;34866;48.670;18.260;2022-10-14T04:57:33;32.05;;;14.27;;
49051;SDS011;34866;48.670;18.260;2022-10-14T04:59:59;30.05;;;13.50;;
49051;SDS011;34866;48.670;18.260;2022-10-14T05:02:30;28.75;;;14.18;;
49051;SDS011;34866;48.670;18.260;2022-10-14T05:04:56;29.83;;;13.10;;
49051;SDS011;34866;48.670;18.260;2022-10-14T05:07:23;32.67;;;13.27;;
49051;SDS011;34866;48.670;18.260;2022-10-14T05:09:50;33.15;;;14.35;;
49051;SDS011;34866;48.670;18.260;2022-10-14T05:12:16;32.13;;;13.73;;
49051;SDS011;34866;48.670;18.260;2022-10-14T05:14:42;31.45;;;15.20;;
49051;SDS011;34866;48.670;18.260;2022-10-14T05:17:07;28.92;;;14.20;;
49051;SDS011;34866;48.670;18.260;2022-10-14T05:19:59;28.88;;;12.20;;
49051;SDS011;34866;48.670;18.260;2022-10-14T05:22:26;27.88;;;14.35;;
49051;SDS011;34866;48.670;18.260;2022-10-14T05:24:57;31.98;;;13.20;;
49051;SDS011;34866;48.670;18.260;2022-10-14T05:27:28;26.63;;;13.77;;
49051;SDS011;34866;48.670;18.260;2022-10-14T05:29:56;28.88;;;12.52;;
49051;SDS011;34866;48.670;18.260;2022-10-14T05:32:25;32.72;;;14.55;;
49051;SDS011;34866;48.670;18.260;2022-10-14T05:34:53;26.90;;;12.98;;
49051;SDS011;34866;48.670;18.260;2022-10-14T05:37:24;28.77;;;13.32;;
49051;SDS011;34866;48.670;18.260;2022-10-14T05:39:49;31.90;;;13.82;;
49051;SDS011;34866;48.670;18.260;2022-10-14T05:42:16;29.67;;;13.43;;
49051;SDS011;34866;48.670;18.260;2022-10-14T05:44:42;31.75;;;14.30;;
49051;SDS011;34866;48.670;18.260;2022-10-14T05:47:08;26.70;;;13.63;;
49051;SDS011;34866;48.670;18.260;2022-10-14T05:49:34;34.63;;;15.98;;
49051;SDS011;34866;48.670;18.260;2022-10-14T05:52:00;36.45;;;16.48;;
49051;SDS011;34866;48.670;18.260;2022-10-14T05:54:31;34.63;;;14.90;;
49051;SDS011;34866;48.670;18.260;2022-10-14T05:56:57;29.85;;;13.95;;
49051;SDS011;34866;48.670;18.260;2022-10-14T05:59:23;27.85;;;14.15;;
49051;SDS011;34866;48.670;18.260;2022-10-14T06:01:53;26.95;;;13.95;;
49051;SDS011;34866;48.670;18.260;2022-10-14T06:04:21;33.72;;;14.18;;
49051;SDS011;34866;48.670;18.260;2022-10-14T06:06:54;27.50;;;12.90;;
49051;SDS011;34866;48.670;18.260;2022-10-14T06:09:19;27.98;;;12.65;;
49051;SDS011;34866;48.670;18.260;2022-10-14T06:11:48;24.75;;;13.20;;
49051;SDS011;34866;48.670;18.260;2022-10-14T06:14:14;25.73;;;13.68;;
49051;SDS011;34866;48.670;18.260;2022-10-14T06:16:39;28.65;;;14.30;;
49051;SDS011;34866;48.670;18.260;2022-10-14T06:19:05;37.30;;;14.80;;
49051;SDS011;34866;48.670;18.260;2022-10-14T06:21:31;29.35;;;13.82;;
49051;SDS011;34866;48.670;18.260;2022-10-14T06:23:57;26.48;;;12.82;;
49051;SDS011;34866;48.670;18.260;2022-10-14T06:26:23;29.85;;;13.55;;
49051;SDS011;34866;48.670;18.260;2022-10-14T06:28:51;27.70;;;13.68;;
49051;SDS011;34866;48.670;18.260;2022-10-14T06:31:26;28.35;;;13.00;;
49051;SDS011;34866;48.670;18.260;2022-10-14T06:36:22;37.00;;;12.77;;
49051;SDS011;34866;48.670;18.260;2022-10-14T06:38:49;26.95;;;12.32;;
49051;SDS011;34866;48.670;18.260;2022-10-14T06:41:17;26.88;;;13.05;;
49051;SDS011;34866;48.670;18.260;2022-10-14T06:43:43;29.20;;;13.30;;
49051;SDS011;34866;48.670;18.260;2022-10-14T06:46:09;38.42;;;12.85;;
49051;SDS011;34866;48.670;18.260;2022-10-14T06:48:34;33.75;;;14.02;;
49051;SDS011;34866;48.670;18.260;2022-10-14T06:51:05;23.35;;;12.02;;
49051;SDS011;34866;48.670;18.260;2022-10-14T06:53:32;25.08;;;13.02;;
49051;SDS011;34866;48.670;18.260;2022-10-14T06:55:59;27.42;;;12.10;;
49051;SDS011;34866;48.670;18.260;2022-10-14T06:58:29;29.80;;;15.05;;
49051;SDS011;34866;48.670;18.260;2022-10-14T07:01:10;30.98;;;14.65;;
49051;SDS011;34866;48.670;18.260;2022-10-14T07:03:36;30.13;;;14.07;;
49051;SDS011;34866;48.670;18.260;2022-10-14T07:06:03;28.08;;;14.07;;
49051;SDS011;34866;48.670;18.260;2022-10-14T07:08:34;35.38;;;14.48;;
49051;SDS011;34866;48.670;18.260;2022-10-14T07:11:00;35.17;;;13.95;;
49051;SDS011;34866;48.670;18.260;2022-10-14T07:13:31;35.85;;;15.02;;
49051;SDS011;34866;48.670;18.260;2022-10-14T07:18:42;36.47;;;17.75;;
49051;SDS011;34866;48.670;18.260;2022-10-14T07:21:08;35.80;;;15.65;;
49051;SDS011;34866;48.670;18.260;2022-10-14T07:23:33;30.77;;;15.27;;
49051;SDS011;34866;48.670;18.260;2022-10-14T07:26:01;31.77;;;15.18;;
49051;SDS011;34866;48.670;18.260;2022-10-14T07:28:26;39.70;;;16.48;;
49051;SDS011;34866;48.670;18.260;2022-10-14T07:30:59;30.63;;;15.50;;
49051;SDS011;34866;48.670;18.260;2022-10-14T07:33:26;31.45;;;14.55;;
49051;SDS011;34866;48.670;18.260;2022-10-14T07:35:52;30.77;;;14.75;;
49051;SDS011;34866;48.670;18.260;2022-10-14T07:38:18;37.97;;;16.25;;
49051;SDS011;34866;48.670;18.260;2022-10-14T07:40:44;37.67;;;16.15;;
49051;SDS011;34866;48.670;18.260;2022-10-14T07:43:09;31.13;;;15.05;;
49051;SDS011;34866;48.670;18.260;2022-10-14T07:45:38;29.00;;;14.95;;
49051;SDS011;34866;48.670;18.260;2022-10-14T07:48:05;27.15;;;14.20;;
49051;SDS011;34866;48.670;18.260;2022-10-14T07:50:31;34.92;;;15.07;;
49051;SDS011;34866;48.670;18.260;2022-10-14T07:52:57;25.80;;;13.77;;
49051;SDS011;34866;48.670;18.260;2022-10-14T07:55:33;28.92;;;14.07;;
49051;SDS011;34866;48.670;18.260;2022-10-14T07:58:06;28.20;;;14.23;;
49051;SDS011;34866;48.670;18.260;2022-10-14T08:00:32;24.60;;;13.02;;
49051;SDS011;34866;48.670;18.260;2022-10-14T08:03:01;31.08;;;14.18;;
49051;SDS011;34866;48.670;18.260;2022-10-14T08:05:26;27.35;;;12.07;;
49051;SDS011;34866;48.670;18.260;2022-10-14T08:07:52;36.67;;;12.88;;
49051;SDS011;34866;48.670;18.260;2022-10-14T08:10:17;29.05;;;13.85;;
49051;SDS011;34866;48.670;18.260;2022-10-14T08:12:43;25.45;;;12.98;;
49051;SDS011;34866;48.670;18.260;2022-10-14T08:15:10;29.65;;;12.88;;
49051;SDS011;34866;48.670;18.260;2022-10-14T08:17:35;27.65;;;13.27;;
49051;SDS011;34866;48.670;18.260;2022-10-14T08:20:04;24.08;;;12.45;;
49051;SDS011;34866;48.670;18.260;2022-10-14T08:22:30;30.73;;;13.88;;
49051;SDS011;34866;48.670;18.260;2022-10-14T08:24:56;27.00;;;13.60;;
49051;SDS011;34866;48.670;18.260;2022-10-14T08:27:22;26.15;;;13.13;;
49051;SDS011;34866;48.670;18.260;2022-10-14T08:29:50;32.08;;;13.73;;
49051;SDS011;34866;48.670;18.260;2022-10-14T08:32:16;26.70;;;12.65;;
49051;SDS011;34866;48.670;18.260;2022-10-14T08:34:42;25.35;;;12.43;;
49051;SDS011;34866;48.670;18.260;2022-10-14T08:37:09;33.42;;;13.20;;
49051;SDS011;34866;48.670;18.260;2022-10-14T08:39:35;31.60;;;12.65;;
49051;SDS011;34866;48.670;18.260;2022-10-14T08:44:41;28.20;;;12.32;;
49051;SDS011;34866;48.670;18.260;2022-10-14T08:52:33;23.00;;;13.77;;
49051;SDS011;34866;48.670;18.260;2022-10-14T09:00:53;28.52;;;12.48;;
49051;SDS011;34866;48.670;18.260;2022-10-14T09:03:20;26.23;;;13.52;;
49051;SDS011;34866;48.670;18.260;2022-10-14T09:05:52;30.67;;;13.10;;
49051;SDS011;34866;48.670;18.260;2022-10-14T09:08:23;26.83;;;13.48;;
49051;SDS011;34866;48.670;18.260;2022-10-14T09:11:14;30.40;;;13.20;;
49051;SDS011;34866;48.670;18.260;2022-10-14T09:13:52;38.05;;;14.68;;
49051;SDS011;34866;48.670;18.260;2022-10-14T09:16:25;39.13;;;15.00;;
49051;SDS011;34866;48.670;18.260;2022-10-14T09:18:59;36.72;;;15.73;;
49051;SDS011;34866;48.670;18.260;2022-10-14T09:26:40;29.13;;;14.68;;
49051;SDS011;34866;48.670;18.260;2022-10-14T09:32:02;32.25;;;14.85;;
49051;SDS011;34866;48.670;18.260;2022-10-14T09:34:38;27.90;;;13.07;;
49051;SDS011;34866;48.670;18.260;2022-10-14T09:39:46;25.90;;;14.18;;
49051;SDS011;34866;48.670;18.260;2022-10-14T09:42:20;25.95;;;13.70;;
49051;SDS011;34866;48.670;18.260;2022-10-14T09:45:11;25.55;;;12.68;;
49051;SDS011;34866;48.670;18.260;2022-10-14T09:47:43;28.65;;;14.60;;
49051;SDS011;34866;48.670;18.260;2022-10-14T09:50:24;31.45;;;14.63;;
49051;SDS011;34866;48.670;18.260;2022-10-14T09:55:48;27.35;;;12.70;;
49051;SDS011;34866;48.670;18.260;2022-10-14T09:58:20;30.27;;;14.73;;
49051;SDS011;34866;48.670;18.260;2022-10-14T10:01:14;27.25;;;15.45;;
49051;SDS011;34866;48.670;18.260;2022-10-14T10:03:45;31.52;;;14.20;;
49051;SDS011;34866;48.670;18.260;2022-10-14T10:06:14;29.27;;;13.80;;
49051;SDS011;34866;48.670;18.260;2022-10-14T10:09:01;29.65;;;14.48;;
49051;SDS011;34866;48.670;18.260;2022-10-14T10:19:38;33.80;;;15.32;;
49051;SDS011;34866;48.670;18.260;2022-10-14T10:22:25;26.38;;;13.85;;
49051;SDS011;34866;48.670;18.260;2022-10-14T10:27:41;25.75;;;13.75;;
49051;SDS011;34866;48.670;18.260;2022-10-14T10:30:26;29.20;;;14.35;;
49051;SDS011;34866;48.670;18.260;2022-10-14T10:36:05;37.38;;;15.05;;
49051;SDS011;34866;48.670;18.260;2022-10-14T10:41:22;27.52;;;14.45;;
49051;SDS011;34866;48.670;18.260;2022-10-14T10:47:32;29.50;;;13.07;;
49051;SDS011;34866;48.670;18.260;2022-10-14T10:53:10;24.90;;;12.00;;
49051;SDS011;34866;48.670;18.260;2022-10-14T10:58:29;28.25;;;13.15;;
49051;SDS011;34866;48.670;18.260;2022-10-14T11:01:00;27.55;;;13.32;;
49051;SDS011;34866;48.670;18.260;2022-10-14T11:09:52;24.67;;;11.88;;
49051;SDS011;34866;48.670;18.260;2022-10-14T11:18:13;42.53;;;18.50;;
49051;SDS011;34866;48.670;18.260;2022-10-14T11:27:10;34.30;;;15.55;;
49051;SDS011;34866;48.670;18.260;2022-10-14T11:47:46;31.60;;;13.05;;
49051;SDS011;34866;48.670;18.260;2022-10-14T11:50:15;30.00;;;13.77;;
49051;SDS011;34866;48.670;18.260;2022-10-14T11:53:08;26.98;;;11.98;;
49051;SDS011;34866;48.670;18.260;2022-10-14T11:55:42;25.63;;;13.55;;
49051;SDS011;34866;48.670;18.260;2022-10-14T11:58:17;30.00;;;12.98;;
49051;SDS011;34866;48.670;18.260;2022-10-14T12:06:51;24.77;;;12.90;;
49051;SDS011;34866;48.670;18.260;2022-10-14T12:12:07;27.67;;;11.93;;
49051;SDS011;34866;48.670;18.260;2022-10-14T12:28:47;42.05;;;14.18;;
49051;SDS011;34866;48.670;18.260;2022-10-14T12:36:36;30.35;;;13.68;;
49051;SDS011;34866;48.670;18.260;2022-10-14T12:41:59;29.20;;;12.93;;
49051;SDS011;34866;48.670;18.260;2022-10-14T12:47:00;23.65;;;11.60;;
49051;SDS011;34866;48.670;18.260;2022-10-14T12:49:31;33.50;;;13.00;;
49051;SDS011;34866;48.670;18.260;2022-10-14T12:52:08;32.75;;;14.55;;
49051;SDS011;34866;48.670;18.260;2022-10-14T12:54:34;27.75;;;12.98;;
49051;SDS011;34866;48.670;18.260;2022-10-14T12:57:24;29.83;;;14.20;;
49051;SDS011;34866;48.670;18.260;2022-10-14T13:00:27;30.25;;;14.80;;
49051;SDS011;34866;48.670;18.260;2022-10-14T13:03:00;42.53;;;15.82;;
49051;SDS011;34866;48.670;18.260;2022-10-14T13:05:40;27.77;;;13.57;;
49051;SDS011;34866;48.670;18.260;2022-10-14T13:13:56;28.35;;;13.65;;
49051;SDS011;34866;48.670;18.260;2022-10-14T13:18:55;28.05;;;14.55;;
49051;SDS011;34866;48.670;18.260;2022-10-14T13:24:16;27.95;;;13.82;;
49051;SDS011;34866;48.670;18.260;2022-10-14T13:27:41;30.58;;;13.38;;
49051;SDS011;34866;48.670;18.260;2022-10-14T13:30:18;27.63;;;14.57;;
49051;SDS011;34866;48.670;18.260;2022-10-14T13:38:25;32.72;;;12.88;;
49051;SDS011;34866;48.670;18.260;2022-10-14T13:40:53;32.85;;;13.68;;
49051;SDS011;34866;48.670;18.260;2022-10-14T13:49:02;35.05;;;13.48;;
49051;SDS011;34866;48.670;18.260;2022-10-14T13:51:52;23.52;;;12.80;;
49051;SDS011;34866;48.670;18.260;2022-10-14T13:54:24;39.88;;;14.60;;
49051;SDS011;34866;48.670;18.260;2022-10-14T13:59:36;28.30;;;14.57;;
49051;SDS011;34866;48.670;18.260;2022-10-14T14:02:18;29.02;;;12.45;;
49051;SDS011;34866;48.670;18.260;2022-10-14T14:04:50;27.40;;;12.70;;
49051;SDS011;34866;48.670;18.260;2022-10-14T14:07:22;33.90;;;13.90;;
49051;SDS011;34866;48.670;18.260;2022-10-14T14:10:05;33.10;;;14.45;;
49051;SDS011;34866;48.670;18.260;2022-10-14T14:12:36;29.45;;;13.43;;
49051;SDS011;34866;48.670;18.260;2022-10-14T14:15:25;36.35;;;15.07;;
49051;SDS011;34866;48.670;18.260;2022-10-14T14:17:53;31.10;;;15.50;;
49051;SDS011;34866;48.670;18.260;2022-10-14T14:20:20;34.45;;;16.90;;
49051;SDS011;34866;48.670;18.260;2022-10-14T14:22:50;37.33;;;18.23;;
49051;SDS011;34866;48.670;18.260;2022-10-14T14:25:21;38.72;;;17.90;;
49051;SDS011;34866;48.670;18.260;2022-10-14T14:27:49;42.03;;;18.15;;
49051;SDS011;34866;48.670;18.260;2022-10-14T14:30:35;35.22;;;16.48;;
49051;SDS011;34866;48.670;18.260;2022-10-14T14:33:34;37.05;;;15.82;;
49051;SDS011;34866;48.670;18.260;2022-10-14T14:36:05;31.20;;;14.00;;
49051;SDS011;34866;48.670;18.260;2022-10-14T14:38:37;37.28;;;16.80;;
49051;SDS011;34866;48.670;18.260;2022-10-14T14:43:45;40.83;;;15.73;;
49051;SDS011;34866;48.670;18.260;2022-10-14T14:46:31;30.60;;;14.32;;
49051;SDS011;34866;48.670;18.260;2022-10-14T14:49:11;28.83;;;14.55;;
49051;SDS011;34866;48.670;18.260;2022-10-14T14:51:47;34.90;;;16.70;;
49051;SDS011;34866;48.670;18.260;2022-10-14T14:54:17;37.65;;;16.25;;
49051;SDS011;34866;48.670;18.260;2022-10-14T15:00:03;33.35;;;14.43;;
49051;SDS011;34866;48.670;18.260;2022-10-14T15:03:28;31.60;;;14.65;;
49051;SDS011;34866;48.670;18.260;2022-10-14T15:06:00;31.90;;;16.10;;
49051;SDS011;34866;48.670;18.260;2022-10-14T15:08:37;40.55;;;16.48;;
49051;SDS011;34866;48.670;18.260;2022-10-14T15:11:29;35.10;;;17.45;;
49051;SDS011;34866;48.670;18.260;2022-10-14T15:14:00;34.40;;;17.73;;
49051;SDS011;34866;48.670;18.260;2022-10-14T15:25:55;33.38;;;17.08;;
49051;SDS011;34866;48.670;18.260;2022-10-14T15:28:31;43.83;;;21.13;;
49051;SDS011;34866;48.670;18.260;2022-10-14T15:34:18;35.72;;;15.73;;
49051;SDS011;34866;48.670;18.260;2022-10-14T15:37:11;36.13;;;15.40;;
49051;SDS011;34866;48.670;18.260;2022-10-14T15:40:04;34.38;;;15.70;;
49051;SDS011;34866;48.670;18.260;2022-10-14T15:43:10;34.33;;;16.33;;
49051;SDS011;34866;48.670;18.260;2022-10-14T15:45:44;37.25;;;17.05;;
49051;SDS011;34866;48.670;18.260;2022-10-14T15:48:56;34.30;;;16.48;;
49051;SDS011;34866;48.670;18.260;2022-10-14T15:51:29;37.67;;;17.98;;
49051;SDS011;34866;48.670;18.260;2022-10-14T15:56:48;37.40;;;15.07;;
49051;SDS011;34866;48.670;18.260;2022-10-14T15:59:14;36.15;;;17.17;;
49051;SDS011;34866;48.670;18.260;2022-10-14T16:05:13;42.30;;;17.95;;
49051;SDS011;34866;48.670;18.260;2022-10-14T16:07:46;43.05;;;19.25;;
49051;SDS011;34866;48.670;18.260;2022-10-14T16:10:13;34.97;;;15.30;;
49051;SDS011;34866;48.670;18.260;2022-10-14T16:13:00;30.05;;;14.43;;
49051;SDS011;34866;48.670;18.260;2022-10-14T16:18:42;32.40;;;15.88;;
49051;SDS011;34866;48.670;18.260;2022-10-14T16:21:36;26.58;;;13.32;;
49051;SDS011;34866;48.670;18.260;2022-10-14T16:24:06;26.92;;;14.07;;
49051;SDS011;34866;48.670;18.260;2022-10-14T16:26:45;32.75;;;14.98;;
49051;SDS011;34866;48.670;18.260;2022-10-14T16:29:16;34.75;;;15.98;;
49051;SDS011;34866;48.670;18.260;2022-10-14T16:31:44;32.70;;;16.67;;
49051;SDS011;34866;48.670;18.260;2022-10-14T16:37:37;38.20;;;18.10;;
49051;SDS011;34866;48.670;18.260;2022-10-14T16:40:36;34.40;;;14.88;;
49051;SDS011;34866;48.670;18.260;2022-10-14T16:43:12;31.17;;;14.90;;
49051;SDS011;34866;48.670;18.260;2022-10-14T16:45:43;32.72;;;15.68;;
49051;SDS011;34866;48.670;18.260;2022-10-14T16:48:34;32.28;;;16.27;;
49051;SDS011;34866;48.670;18.260;2022-10-14T16:51:47;33.47;;;14.65;;
49051;SDS011;34866;48.670;18.260;2022-10-14T16:54:36;27.50;;;15.25;;
49051;SDS011;34866;48.670;18.260;2022-10-14T16:57:58;38.25;;;13.73;;
49051;SDS011;34866;48.670;18.260;2022-10-14T17:03:57;29.33;;;14.63;;
49051;SDS011;34866;48.670;18.260;2022-10-14T17:06:23;29.08;;;14.55;;
49051;SDS011;34866;48.670;18.260;2022-10-14T17:08:55;30.83;;;13.32;;
49051;SDS011;34866;48.670;18.260;2022-10-14T17:11:48;29.55;;;14.32;;
49051;SDS011;34866;48.670;18.260;2022-10-14T17:14:16;29.17;;;14.18;;
49051;SDS011;34866;48.670;18.260;2022-10-14T17:16:54;28.65;;;14.80;;
49051;SDS011;34866;48.670;18.260;2022-10-14T17:19:20;30.10;;;13.93;;
49051;SDS011;34866;48.670;18.260;2022-10-14T17:21:49;27.48;;;13.85;;
49051;SDS011;34866;48.670;18.260;2022-10-14T17:24:23;25.63;;;13.20;;
49051;SDS011;34866;48.670;18.260;2022-10-14T17:26:51;31.67;;;14.05;;
49051;SDS011;34866;48.670;18.260;2022-10-14T17:29:18;29.00;;;13.95;;
49051;SDS011;34866;48.670;18.260;2022-10-14T17:31:47;30.98;;;15.10;;
49051;SDS011;34866;48.670;18.260;2022-10-14T17:34:36;32.63;;;15.35;;
49051;SDS011;34866;48.670;18.260;2022-10-14T17:37:04;30.13;;;14.48;;
49051;SDS011;34866;48.670;18.260;2022-10-14T17:39:38;37.05;;;20.83;;
49051;SDS011;34866;48.670;18.260;2022-10-14T17:42:17;31.38;;;16.90;;
49051;SDS011;34866;48.670;18.260;2022-10-14T17:44:54;28.38;;;13.93;;
49051;SDS011;34866;48.670;18.260;2022-10-14T17:47:28;34.42;;;15.85;;
49051;SDS011;34866;48.670;18.260;2022-10-14T17:50:01;31.65;;;13.70;;
49051;SDS011;34866;48.670;18.260;2022-10-14T17:52:48;31.55;;;13.88;;
49051;SDS011;34866;48.670;18.260;2022-10-14T17:55:19;28.60;;;13.15;;
49051;SDS011;34866;48.670;18.260;2022-10-14T18:00:39;28.90;;;13.90;;
49051;SDS011;34866;48.670;18.260;2022-10-14T18:03:32;38.15;;;15.63;;
49051;SDS011;34866;48.670;18.260;2022-10-14T18:06:30;35.78;;;15.18;;
49051;SDS011;34866;48.670;18.260;2022-10-14T18:09:04;28.80;;;13.70;;
49051;SDS011;34866;48.670;18.260;2022-10-14T18:11:41;31.45;;;14.45;;
49051;SDS011;34866;48.670;18.260;2022-10-14T18:14:38;31.33;;;14.40;;
49051;SDS011;34866;48.670;18.260;2022-10-14T18:17:10;32.72;;;14.50;;
49051;SDS011;34866;48.670;18.260;2022-10-14T18:23:30;35.72;;;17.88;;
49051;SDS011;34866;48.670;18.260;2022-10-14T18:26:07;42.08;;;18.20;;
49051;SDS011;34866;48.670;18.260;2022-10-14T18:36:10;38.47;;;17.67;;
49051;SDS011;34866;48.670;18.260;2022-10-14T18:42:07;36.95;;;19.52;;
49051;SDS011;34866;48.670;18.260;2022-10-14T18:44:34;44.70;;;21.17;;